sensor_id;sensor_type;location;lat;lon;timestamp;pressure;altitude;pressure_sealevel;temperature;humidity
35291;BME280;21411;50.024;19.220;2022-08-23T00:01:42;98521.98;;;16.86;100.00
35291;BME280;21411;50.024;19.220;2022-08-23T00:04:16;98524.16;;;16.86;100.00
35291;BME280;21411;50.024;19.220;2022-08-23T00:06:44;98526.09;;;16.85;100.00
35291;BME280;21411;50.024;19.220;2022-08-23T00:09:12;98525.41;;;16.84;100.00
35291;BME280;21411;50.024;19.220;2022-08-23T00:11:48;98526.91;;;16.86;100.00
35291;BME280;21411;50.024;19.220;2022-08-23T00:14:17;98529.25;;;16.87;100.00
35291;BME280;21411;50.024;19.220;2022-08-23T00:16:45;98528.89;;;16.89;100.00
35291;BME280;21411;50.024;19.220;2022-08-23T00:19:13;98530.88;;;16.89;100.00
35291;BME280;21411;50.024;19.220;2022-08-23T00:21:44;98528.91;;;16.87;100.00
35291;BME280;21411;50.024;19.220;2022-08-23T00:24:12;98529.73;;;16.84;100.00
35291;BME280;21411;50.024;19.220;2022-08-23T00:29:32;98528.65;;;16.81;100.00
35291;BME280;21411;50.024;19.220;2022-08-23T00:31:59;98533.67;;;16.79;100.00
35291;BME280;21411;50.024;19.220;2022-08-23T00:34:26;98535.59;;;16.76;100.00
35291;BME280;21411;50.024;19.220;2022-08-23T00:36:54;98536.34;;;16.72;100.00
35291;BME280;21411;50.024;19.220;2022-08-23T00:39:21;98537.97;;;16.70;100.00
35291;BME280;21411;50.024;19.220;2022-08-23T00:41:48;98549.27;;;16.68;100.00
35291;BME280;21411;50.024;19.220;2022-08-23T00:44:25;98550.47;;;16.66;100.00
35291;BME280;21411;50.024;19.220;2022-08-23T00:47:12;98543.73;;;16.66;100.00
35291;BME280;21411;50.024;19.220;2022-08-23T00:52:41;98544.70;;;16.65;100.00
35291;BME280;21411;50.024;19.220;2022-08-23T00:55:09;98548.54;;;16.66;100.00
35291;BME280;21411;50.024;19.220;2022-08-23T00:57:35;98545.70;;;16.64;100.00
35291;BME280;21411;50.024;19.220;2022-08-23T01:00:06;98542.36;;;16.63;100.00
35291;BME280;21411;50.024;19.220;2022-08-23T01:02:33;98542.50;;;16.64;100.00
35291;BME280;21411;50.024;19.220;2022-08-23T01:05:00;98543.17;;;16.64;100.00
35291;BME280;21411;50.024;19.220;2022-08-23T01:07:47;98541.79;;;16.65;100.00
35291;BME280;21411;50.024;19.220;2022-08-23T01:10:23;98544.89;;;16.67;100.00
35291;BME280;21411;50.024;19.220;2022-08-23T01:12:58;98539.86;;;16.68;100.00
35291;BME280;21411;50.024;19.220;2022-08-23T01:15:34;98541.88;;;16.70;100.00
35291;BME280;21411;50.024;19.220;2022-08-23T01:18:08;98547.86;;;16.71;100.00
35291;BME280;21411;50.024;19.220;2022-08-23T01:20:58;98547.45;;;16.70;100.00
35291;BME280;21411;50.024;19.220;2022-08-23T01:23:32;98549.54;;;16.67;100.00
35291;BME280;21411;50.024;19.220;2022-08-23T01:26:02;98548.88;;;16.63;100.00
35291;BME280;21411;50.024;19.220;2022-08-23T01:28:30;98548.69;;;16.61;100.00
35291;BME280;21411;50.024;19.220;2022-08-23T01:30:57;98546.64;;;16.60;100.00
35291;BME280;21411;50.024;19.220;2022-08-23T01:33:24;98548.73;;;16.59;100.00
35291;BME280;21411;50.024;19.220;2022-08-23T01:35:54;98548.83;;;16.58;100.00
35291;BME280;21411;50.024;19.220;2022-08-23T01:38:22;98550.90;;;16.59;100.00
35291;BME280;21411;50.024;19.220;2022-08-23T01:40:50;98546.05;;;16.59;100.00
35291;BME280;21411;50.024;19.220;2022-08-23T01:43:18;98548.95;;;16.59;100.00
35291;BME280;21411;50.024;19.220;2022-08-23T01:45:49;98547.08;;;16.58;100.00
35291;BME280;21411;50.024;19.220;2022-08-23T01:48:17;98549.09;;;16.59;100.00
35291;BME280;21411;50.024;19.220;2022-08-23T01:50:45;98548.06;;;16.60;100.00
35291;BME280;21411;50.024;19.220;2022-08-23T01:53:12;98543.61;;;16.62;100.00
35291;BME280;21411;50.024;19.220;2022-08-23T01:55:40;98538.60;;;16.62;100.00
35291;BME280;21411;50.024;19.220;2022-08-23T01:58:08;98544.92;;;16.61;100.00
35291;BME280;21411;50.024;19.220;2022-08-23T02:00:38;98543.98;;;16.61;100.00
35291;BME280;21411;50.024;19.220;2022-08-23T02:03:07;98551.39;;;16.61;100.00
35291;BME280;21411;50.024;19.220;2022-08-23T02:05:34;98548.25;;;16.62;100.00
35291;BME280;21411;50.024;19.220;2022-08-23T02:08:04;98554.88;;;16.64;100.00
35291;BME280;21411;50.024;19.220;2022-08-23T02:10:50;98557.56;;;16.65;100.00
35291;BME280;21411;50.024;19.220;2022-08-23T02:13:17;98562.77;;;16.67;100.00
35291;BME280;21411;50.024;19.220;2022-08-23T02:15:45;98562.08;;;16.69;100.00
35291;BME280;21411;50.024;19.220;2022-08-23T02:18:12;98567.46;;;16.71;100.00
35291;BME280;21411;50.024;19.220;2022-08-23T02:20:44;98561.34;;;16.73;100.00
35291;BME280;21411;50.024;19.220;2022-08-23T02:23:11;98557.70;;;16.75;100.00
35291;BME280;21411;50.024;19.220;2022-08-23T02:25:38;98560.52;;;16.78;100.00
35291;BME280;21411;50.024;19.220;2022-08-23T02:28:06;98562.56;;;16.79;100.00
35291;BME280;21411;50.024;19.220;2022-08-23T02:30:32;98562.89;;;16.79;100.00
35291;BME280;21411;50.024;19.220;2022-08-23T02:32:59;98561.76;;;16.80;100.00
35291;BME280;21411;50.024;19.220;2022-08-23T02:35:26;98562.54;;;16.79;100.00
35291;BME280;21411;50.024;19.220;2022-08-23T02:37:53;98556.86;;;16.79;100.00
35291;BME280;21411;50.024;19.220;2022-08-23T02:40:20;98556.05;;;16.80;100.00
35291;BME280;21411;50.024;19.220;2022-08-23T02:42:47;98555.36;;;16.79;100.00
35291;BME280;21411;50.024;19.220;2022-08-23T02:45:14;98554.24;;;16.80;100.00
35291;BME280;21411;50.024;19.220;2022-08-23T02:47:43;98554.59;;;16.80;100.00
35291;BME280;21411;50.024;19.220;2022-08-23T02:50:10;98553.67;;;16.80;100.00
35291;BME280;21411;50.024;19.220;2022-08-23T02:52:38;98551.52;;;16.80;100.00
35291;BME280;21411;50.024;19.220;2022-08-23T02:55:05;98549.91;;;16.80;100.00
35291;BME280;21411;50.024;19.220;2022-08-23T02:57:32;98550.86;;;16.79;100.00
35291;BME280;21411;50.024;19.220;2022-08-23T02:59:59;98550.86;;;16.78;100.00
35291;BME280;21411;50.024;19.220;2022-08-23T03:02:25;98550.55;;;16.75;100.00
35291;BME280;21411;50.024;19.220;2022-08-23T03:04:52;98556.59;;;16.72;100.00
35291;BME280;21411;50.024;19.220;2022-08-23T03:07:19;98562.16;;;16.71;100.00
35291;BME280;21411;50.024;19.220;2022-08-23T03:09:45;98571.89;;;16.68;100.00
35291;BME280;21411;50.024;19.220;2022-08-23T03:12:12;98571.61;;;16.67;100.00
35291;BME280;21411;50.024;19.220;2022-08-23T03:14:38;98570.17;;;16.66;100.00
35291;BME280;21411;50.024;19.220;2022-08-23T03:17:06;98571.95;;;16.67;100.00
35291;BME280;21411;50.024;19.220;2022-08-23T03:19:33;98572.76;;;16.68;100.00
35291;BME280;21411;50.024;19.220;2022-08-23T03:22:00;98578.95;;;16.69;100.00
35291;BME280;21411;50.024;19.220;2022-08-23T03:24:26;98580.42;;;16.71;100.00
35291;BME280;21411;50.024;19.220;2022-08-23T03:26:53;98585.66;;;16.72;100.00
35291;BME280;21411;50.024;19.220;2022-08-23T03:29:20;98585.56;;;16.73;100.00
35291;BME280;21411;50.024;19.220;2022-08-23T03:31:46;98582.48;;;16.75;100.00
35291;BME280;21411;50.024;19.220;2022-08-23T03:34:13;98582.52;;;16.77;100.00
35291;BME280;21411;50.024;19.220;2022-08-23T03:36:40;98574.52;;;16.78;100.00
35291;BME280;21411;50.024;19.220;2022-08-23T03:39:06;98567.73;;;16.78;100.00
35291;BME280;21411;50.024;19.220;2022-08-23T03:41:33;98569.73;;;16.77;100.00
35291;BME280;21411;50.024;19.220;2022-08-23T03:44:00;98576.72;;;16.77;100.00
35291;BME280;21411;50.024;19.220;2022-08-23T03:46:27;98577.50;;;16.78;100.00
35291;BME280;21411;50.024;19.220;2022-08-23T03:48:56;98583.25;;;16.80;100.00
35291;BME280;21411;50.024;19.220;2022-08-23T03:51:26;98586.81;;;16.82;100.00
35291;BME280;21411;50.024;19.220;2022-08-23T03:53:53;98591.83;;;16.84;100.00
35291;BME280;21411;50.024;19.220;2022-08-23T03:56:28;98587.54;;;16.86;100.00
35291;BME280;21411;50.024;19.220;2022-08-23T03:58:56;98589.67;;;16.88;100.00
35291;BME280;21411;50.024;19.220;2022-08-23T04:01:23;98593.48;;;16.91;100.00
35291;BME280;21411;50.024;19.220;2022-08-23T04:03:50;98594.54;;;16.93;100.00
35291;BME280;21411;50.024;19.220;2022-08-23T04:06:17;98598.22;;;16.94;100.00
35291;BME280;21411;50.024;19.220;2022-08-23T04:08:44;98604.41;;;16.95;100.00
35291;BME280;21411;50.024;19.220;2022-08-23T04:11:12;98610.33;;;16.97;100.00
35291;BME280;21411;50.024;19.220;2022-08-23T04:13:39;98609.41;;;16.99;100.00
35291;BME280;21411;50.024;19.220;2022-08-23T04:16:07;98610.70;;;17.00;100.00
35291;BME280;21411;50.024;19.220;2022-08-23T04:18:34;98603.71;;;17.02;100.00
35291;BME280;21411;50.024;19.220;2022-08-23T04:21:06;98605.88;;;17.03;100.00
35291;BME280;21411;50.024;19.220;2022-08-23T04:23:36;98609.67;;;17.07;100.00
35291;BME280;21411;50.024;19.220;2022-08-23T04:26:05;98607.77;;;17.09;100.00
35291;BME280;21411;50.024;19.220;2022-08-23T04:28:32;98610.52;;;17.13;100.00
35291;BME280;21411;50.024;19.220;2022-08-23T04:31:00;98607.85;;;17.16;100.00
35291;BME280;21411;50.024;19.220;2022-08-23T04:33:28;98606.66;;;17.22;100.00
35291;BME280;21411;50.024;19.220;2022-08-23T04:35:58;98611.33;;;17.31;100.00
35291;BME280;21411;50.024;19.220;2022-08-23T04:38:26;98617.46;;;17.40;100.00
35291;BME280;21411;50.024;19.220;2022-08-23T04:40:54;98611.84;;;17.48;100.00
35291;BME280;21411;50.024;19.220;2022-08-23T04:43:40;98608.47;;;17.52;100.00
35291;BME280;21411;50.024;19.220;2022-08-23T04:46:09;98612.05;;;17.58;100.00
35291;BME280;21411;50.024;19.220;2022-08-23T04:48:36;98612.80;;;17.68;100.00
35291;BME280;21411;50.024;19.220;2022-08-23T04:51:03;98614.97;;;17.75;100.00
35291;BME280;21411;50.024;19.220;2022-08-23T04:53:30;98617.73;;;17.78;100.00
35291;BME280;21411;50.024;19.220;2022-08-23T04:56:01;98617.27;;;17.81;100.00
35291;BME280;21411;50.024;19.220;2022-08-23T04:58:30;98619.41;;;17.85;100.00
35291;BME280;21411;50.024;19.220;2022-08-23T05:00:59;98625.70;;;17.85;100.00
35291;BME280;21411;50.024;19.220;2022-08-23T05:03:27;98625.60;;;17.82;100.00
35291;BME280;21411;50.024;19.220;2022-08-23T05:05:55;98624.63;;;17.83;100.00
35291;BME280;21411;50.024;19.220;2022-08-23T05:08:24;98629.26;;;17.88;100.00
35291;BME280;21411;50.024;19.220;2022-08-23T05:10:51;98626.68;;;17.98;100.00
35291;BME280;21411;50.024;19.220;2022-08-23T05:13:17;98624.19;;;18.08;100.00
35291;BME280;21411;50.024;19.220;2022-08-23T05:15:45;98627.18;;;18.19;100.00
35291;BME280;21411;50.024;19.220;2022-08-23T05:18:15;98632.67;;;18.27;100.00
35291;BME280;21411;50.024;19.220;2022-08-23T05:20:41;98632.81;;;18.32;100.00
35291;BME280;21411;50.024;19.220;2022-08-23T05:23:08;98631.40;;;18.34;100.00
35291;BME280;21411;50.024;19.220;2022-08-23T05:25:34;98638.42;;;18.37;100.00
35291;BME280;21411;50.024;19.220;2022-08-23T05:28:21;98642.58;;;18.45;100.00
35291;BME280;21411;50.024;19.220;2022-08-23T05:31:03;98642.67;;;18.50;100.00
35291;BME280;21411;50.024;19.220;2022-08-23T05:33:31;98644.38;;;18.52;100.00
35291;BME280;21411;50.024;19.220;2022-08-23T05:36:01;98643.39;;;18.60;100.00
35291;BME280;21411;50.024;19.220;2022-08-23T05:38:27;98648.02;;;18.69;100.00
35291;BME280;21411;50.024;19.220;2022-08-23T05:40:56;98652.14;;;18.79;100.00
35291;BME280;21411;50.024;19.220;2022-08-23T05:43:24;98651.82;;;18.91;100.00
35291;BME280;21411;50.024;19.220;2022-08-23T05:48:33;98652.88;;;19.11;100.00
35291;BME280;21411;50.024;19.220;2022-08-23T05:53:36;98650.77;;;19.19;100.00
35291;BME280;21411;50.024;19.220;2022-08-23T05:56:12;98655.80;;;19.24;100.00
35291;BME280;21411;50.024;19.220;2022-08-23T05:58:39;98660.94;;;19.33;100.00
35291;BME280;21411;50.024;19.220;2022-08-23T06:01:05;98671.42;;;19.38;100.00
35291;BME280;21411;50.024;19.220;2022-08-23T06:03:32;98674.86;;;19.38;100.00
35291;BME280;21411;50.024;19.220;2022-08-23T06:06:00;98674.69;;;19.39;100.00
35291;BME280;21411;50.024;19.220;2022-08-23T06:08:27;98678.19;;;19.43;100.00
35291;BME280;21411;50.024;19.220;2022-08-23T06:11:10;98672.13;;;19.46;100.00
35291;BME280;21411;50.024;19.220;2022-08-23T06:13:40;98674.67;;;19.41;100.00
35291;BME280;21411;50.024;19.220;2022-08-23T06:16:07;98679.45;;;19.29;100.00
35291;BME280;21411;50.024;19.220;2022-08-23T06:18:33;98684.90;;;19.18;100.00
35291;BME280;21411;50.024;19.220;2022-08-23T06:21:08;98684.98;;;19.14;100.00
35291;BME280;21411;50.024;19.220;2022-08-23T06:23:36;98686.70;;;19.23;100.00
35291;BME280;21411;50.024;19.220;2022-08-23T06:26:16;98686.94;;;19.38;100.00
35291;BME280;21411;50.024;19.220;2022-08-23T06:28:50;98682.27;;;19.54;100.00
35291;BME280;21411;50.024;19.220;2022-08-23T06:31:19;98683.17;;;19.74;100.00
35291;BME280;21411;50.024;19.220;2022-08-23T06:34:11;98684.85;;;19.98;100.00
35291;BME280;21411;50.024;19.220;2022-08-23T06:36:39;98684.76;;;20.21;100.00
35291;BME280;21411;50.024;19.220;2022-08-23T06:39:07;98686.71;;;20.43;100.00
35291;BME280;21411;50.024;19.220;2022-08-23T06:41:35;98684.14;;;20.62;100.00
35291;BME280;21411;50.024;19.220;2022-08-23T06:44:02;98683.73;;;20.84;100.00
35291;BME280;21411;50.024;19.220;2022-08-23T06:46:29;98687.10;;;21.01;100.00
35291;BME280;21411;50.024;19.220;2022-08-23T06:48:56;98688.98;;;21.13;100.00
35291;BME280;21411;50.024;19.220;2022-08-23T06:51:26;98689.89;;;21.18;100.00
35291;BME280;21411;50.024;19.220;2022-08-23T06:53:56;98690.02;;;21.09;100.00
35291;BME280;21411;50.024;19.220;2022-08-23T06:56:24;98691.45;;;21.04;100.00
35291;BME280;21411;50.024;19.220;2022-08-23T06:58:52;98694.35;;;21.06;100.00
35291;BME280;21411;50.024;19.220;2022-08-23T07:01:30;98688.54;;;21.04;100.00
35291;BME280;21411;50.024;19.220;2022-08-23T07:04:01;98687.94;;;20.96;100.00
35291;BME280;21411;50.024;19.220;2022-08-23T07:06:29;98688.37;;;21.05;100.00
35291;BME280;21411;50.024;19.220;2022-08-23T07:08:56;98691.48;;;21.16;100.00
35291;BME280;21411;50.024;19.220;2022-08-23T07:11:25;98693.82;;;21.29;100.00
35291;BME280;21411;50.024;19.220;2022-08-23T07:13:52;98693.50;;;21.41;100.00
35291;BME280;21411;50.024;19.220;2022-08-23T07:16:19;98692.45;;;21.52;100.00
35291;BME280;21411;50.024;19.220;2022-08-23T07:18:46;98697.52;;;21.63;100.00
35291;BME280;21411;50.024;19.220;2022-08-23T07:21:15;98698.76;;;21.61;100.00
35291;BME280;21411;50.024;19.220;2022-08-23T07:23:42;98700.45;;;21.68;100.00
35291;BME280;21411;50.024;19.220;2022-08-23T07:26:12;98701.12;;;21.77;100.00
35291;BME280;21411;50.024;19.220;2022-08-23T07:28:40;98704.45;;;21.87;100.00
35291;BME280;21411;50.024;19.220;2022-08-23T07:33:33;98706.95;;;22.08;100.00
35291;BME280;21411;50.024;19.220;2022-08-23T07:36:01;98706.29;;;22.15;100.00
35291;BME280;21411;50.024;19.220;2022-08-23T07:38:28;98707.72;;;22.25;100.00
35291;BME280;21411;50.024;19.220;2022-08-23T07:40:55;98705.90;;;22.37;100.00
35291;BME280;21411;50.024;19.220;2022-08-23T07:43:22;98702.14;;;22.48;100.00
35291;BME280;21411;50.024;19.220;2022-08-23T07:45:49;98701.92;;;22.59;100.00
35291;BME280;21411;50.024;19.220;2022-08-23T07:48:15;98702.88;;;22.65;100.00
35291;BME280;21411;50.024;19.220;2022-08-23T07:50:53;98708.25;;;22.84;100.00
35291;BME280;21411;50.024;19.220;2022-08-23T07:53:20;98712.75;;;23.16;100.00
35291;BME280;21411;50.024;19.220;2022-08-23T07:55:47;98713.81;;;23.32;100.00
35291;BME280;21411;50.024;19.220;2022-08-23T07:58:14;98720.05;;;23.39;100.00
35291;BME280;21411;50.024;19.220;2022-08-23T08:00:40;98721.99;;;23.37;100.00
35291;BME280;21411;50.024;19.220;2022-08-23T08:03:07;98722.35;;;23.39;100.00
35291;BME280;21411;50.024;19.220;2022-08-23T08:05:35;98725.11;;;23.39;100.00
35291;BME280;21411;50.024;19.220;2022-08-23T08:08:03;98729.38;;;23.30;100.00
35291;BME280;21411;50.024;19.220;2022-08-23T08:10:31;98729.09;;;23.14;100.00
35291;BME280;21411;50.024;19.220;2022-08-23T08:12:58;98733.11;;;22.95;100.00
35291;BME280;21411;50.024;19.220;2022-08-23T08:15:25;98729.14;;;22.83;100.00
35291;BME280;21411;50.024;19.220;2022-08-23T08:17:52;98725.34;;;22.69;100.00
35291;BME280;21411;50.024;19.220;2022-08-23T08:20:19;98726.27;;;22.60;100.00
35291;BME280;21411;50.024;19.220;2022-08-23T08:22:48;98734.46;;;22.55;100.00
35291;BME280;21411;50.024;19.220;2022-08-23T08:25:14;98738.04;;;22.51;100.00
35291;BME280;21411;50.024;19.220;2022-08-23T08:27:41;98739.89;;;22.42;100.00
35291;BME280;21411;50.024;19.220;2022-08-23T08:30:09;98745.27;;;22.38;100.00
35291;BME280;21411;50.024;19.220;2022-08-23T08:32:36;98749.29;;;22.28;100.00
35291;BME280;21411;50.024;19.220;2022-08-23T08:35:05;98753.98;;;22.19;100.00
35291;BME280;21411;50.024;19.220;2022-08-23T08:37:32;98758.96;;;22.13;100.00
35291;BME280;21411;50.024;19.220;2022-08-23T08:39:59;98761.43;;;22.14;100.00
35291;BME280;21411;50.024;19.220;2022-08-23T08:46:06;98761.29;;;22.29;100.00
35291;BME280;21411;50.024;19.220;2022-08-23T08:48:38;98765.52;;;22.43;100.00
35291;BME280;21411;50.024;19.220;2022-08-23T08:53:47;98768.10;;;22.60;100.00
35291;BME280;21411;50.024;19.220;2022-08-23T08:56:26;98764.83;;;22.68;100.00
35291;BME280;21411;50.024;19.220;2022-08-23T08:59:01;98767.23;;;22.75;100.00
35291;BME280;21411;50.024;19.220;2022-08-23T09:01:31;98767.15;;;22.84;100.00
35291;BME280;21411;50.024;19.220;2022-08-23T09:04:01;98770.84;;;23.00;100.00
35291;BME280;21411;50.024;19.220;2022-08-23T09:16:53;98779.90;;;23.48;100.00
35291;BME280;21411;50.024;19.220;2022-08-23T09:19:23;98780.30;;;23.53;100.00
35291;BME280;21411;50.024;19.220;2022-08-23T09:22:00;98784.23;;;23.59;100.00
35291;BME280;21411;50.024;19.220;2022-08-23T09:24:29;98784.98;;;23.68;100.00
35291;BME280;21411;50.024;19.220;2022-08-23T09:26:56;98787.66;;;23.74;100.00
35291;BME280;21411;50.024;19.220;2022-08-23T09:29:26;98787.05;;;23.76;100.00
35291;BME280;21411;50.024;19.220;2022-08-23T09:31:55;98783.17;;;23.74;100.00
35291;BME280;21411;50.024;19.220;2022-08-23T09:39:39;98791.06;;;23.54;100.00
35291;BME280;21411;50.024;19.220;2022-08-23T09:44:55;98794.98;;;23.52;100.00
35291;BME280;21411;50.024;19.220;2022-08-23T09:47:31;98792.80;;;23.54;100.00
35291;BME280;21411;50.024;19.220;2022-08-23T09:50:20;98793.20;;;23.58;100.00
35291;BME280;21411;50.024;19.220;2022-08-23T09:52:54;98795.08;;;23.67;100.00
35291;BME280;21411;50.024;19.220;2022-08-23T09:55:35;98792.64;;;23.82;100.00
35291;BME280;21411;50.024;19.220;2022-08-23T09:58:06;98796.52;;;23.92;100.00
35291;BME280;21411;50.024;19.220;2022-08-23T10:00:41;98792.74;;;23.93;100.00
35291;BME280;21411;50.024;19.220;2022-08-23T10:03:38;98790.52;;;23.95;100.00
35291;BME280;21411;50.024;19.220;2022-08-23T10:06:05;98794.23;;;23.94;100.00
35291;BME280;21411;50.024;19.220;2022-08-23T10:08:49;98798.11;;;23.82;100.00
35291;BME280;21411;50.024;19.220;2022-08-23T10:11:22;98802.55;;;23.74;100.00
35291;BME280;21411;50.024;19.220;2022-08-23T10:13:50;98809.13;;;23.66;100.00
35291;BME280;21411;50.024;19.220;2022-08-23T10:16:40;98812.39;;;23.58;100.00
35291;BME280;21411;50.024;19.220;2022-08-23T10:19:24;98817.47;;;23.50;100.00
35291;BME280;21411;50.024;19.220;2022-08-23T10:22:23;98816.20;;;23.53;100.00
35291;BME280;21411;50.024;19.220;2022-08-23T10:33:22;98813.80;;;23.74;100.00
35291;BME280;21411;50.024;19.220;2022-08-23T10:36:20;98819.52;;;23.98;100.00
35291;BME280;21411;50.024;19.220;2022-08-23T10:39:16;98821.16;;;24.15;100.00
35291;BME280;21411;50.024;19.220;2022-08-23T10:42:07;98819.91;;;24.25;100.00
35291;BME280;21411;50.024;19.220;2022-08-23T10:44:59;98817.05;;;24.36;100.00
35291;BME280;21411;50.024;19.220;2022-08-23T10:47:43;98816.11;;;24.66;100.00
35291;BME280;21411;50.024;19.220;2022-08-23T10:50:16;98812.73;;;24.91;100.00
35291;BME280;21411;50.024;19.220;2022-08-23T10:55:57;98812.84;;;24.94;100.00
35291;BME280;21411;50.024;19.220;2022-08-23T10:58:35;98811.95;;;24.93;100.00
35291;BME280;21411;50.024;19.220;2022-08-23T11:01:05;98808.16;;;25.15;100.00
35291;BME280;21411;50.024;19.220;2022-08-23T11:03:36;98810.69;;;25.39;100.00
35291;BME280;21411;50.024;19.220;2022-08-23T11:17:01;98812.02;;;26.88;100.00
35291;BME280;21411;50.024;19.220;2022-08-23T11:22:19;98814.73;;;27.44;100.00
35291;BME280;21411;50.024;19.220;2022-08-23T11:27:32;98816.98;;;27.48;100.00
35291;BME280;21411;50.024;19.220;2022-08-23T11:33:24;98826.37;;;27.16;100.00
35291;BME280;21411;50.024;19.220;2022-08-23T11:44:24;98818.88;;;26.90;100.00
35291;BME280;21411;50.024;19.220;2022-08-23T11:55:04;98819.52;;;26.85;100.00
35291;BME280;21411;50.024;19.220;2022-08-23T11:57:46;98821.61;;;26.90;100.00
35291;BME280;21411;50.024;19.220;2022-08-23T12:03:08;98824.39;;;27.12;100.00
35291;BME280;21411;50.024;19.220;2022-08-23T12:21:44;98835.06;;;27.69;100.00
35291;BME280;21411;50.024;19.220;2022-08-23T12:24:22;98831.09;;;27.61;100.00
35291;BME280;21411;50.024;19.220;2022-08-23T12:27:05;98832.08;;;27.45;100.00
35291;BME280;21411;50.024;19.220;2022-08-23T12:29:57;98831.40;;;27.59;100.00
35291;BME280;21411;50.024;19.220;2022-08-23T12:32:43;98830.55;;;27.70;100.00
35291;BME280;21411;50.024;19.220;2022-08-23T12:41:19;98830.59;;;27.59;100.00
35291;BME280;21411;50.024;19.220;2022-08-23T12:46:42;98830.52;;;27.31;100.00
35291;BME280;21411;50.024;19.220;2022-08-23T12:51:50;98831.98;;;27.09;100.00
35291;BME280;21411;50.024;19.220;2022-08-23T12:54:30;98831.20;;;26.92;100.00
35291;BME280;21411;50.024;19.220;2022-08-23T12:56:58;98828.23;;;26.85;100.00
35291;BME280;21411;50.024;19.220;2022-08-23T12:59:39;98834.53;;;26.81;100.00
35291;BME280;21411;50.024;19.220;2022-08-23T13:02:14;98833.27;;;26.90;100.00
35291;BME280;21411;50.024;19.220;2022-08-23T13:04:43;98834.65;;;26.82;100.00
35291;BME280;21411;50.024;19.220;2022-08-23T13:07:14;98834.70;;;26.58;100.00
35291;BME280;21411;50.024;19.220;2022-08-23T13:09:44;98830.40;;;26.31;100.00
35291;BME280;21411;50.024;19.220;2022-08-23T13:12:11;98830.58;;;26.33;100.00
35291;BME280;21411;50.024;19.220;2022-08-23T13:14:42;98831.77;;;26.48;100.00
35291;BME280;21411;50.024;19.220;2022-08-23T13:17:20;98835.35;;;26.51;100.00
35291;BME280;21411;50.024;19.220;2022-08-23T13:19:50;98832.76;;;26.51;100.00
35291;BME280;21411;50.024;19.220;2022-08-23T13:32:50;98828.45;;;26.43;100.00
35291;BME280;21411;50.024;19.220;2022-08-23T13:37:55;98829.95;;;26.09;100.00
35291;BME280;21411;50.024;19.220;2022-08-23T13:40:27;98825.48;;;26.08;100.00
35291;BME280;21411;50.024;19.220;2022-08-23T13:43:00;98822.80;;;26.06;100.00
35291;BME280;21411;50.024;19.220;2022-08-23T13:45:48;98821.34;;;26.11;100.00
35291;BME280;21411;50.024;19.220;2022-08-23T13:48:31;98818.05;;;26.09;100.00
35291;BME280;21411;50.024;19.220;2022-08-23T13:53:45;98813.79;;;25.95;100.00
35291;BME280;21411;50.024;19.220;2022-08-23T13:56:12;98817.27;;;25.91;100.00
35291;BME280;21411;50.024;19.220;2022-08-23T13:58:41;98814.60;;;25.81;100.00
35291;BME280;21411;50.024;19.220;2022-08-23T14:01:15;98812.88;;;25.81;100.00
35291;BME280;21411;50.024;19.220;2022-08-23T14:03:43;98806.73;;;25.85;100.00
35291;BME280;21411;50.024;19.220;2022-08-23T14:06:10;98803.07;;;25.92;100.00
35291;BME280;21411;50.024;19.220;2022-08-23T14:08:38;98802.82;;;25.98;100.00
35291;BME280;21411;50.024;19.220;2022-08-23T14:11:05;98799.88;;;26.02;100.00
35291;BME280;21411;50.024;19.220;2022-08-23T14:13:32;98800.02;;;26.01;100.00
35291;BME280;21411;50.024;19.220;2022-08-23T14:16:03;98801.78;;;26.07;100.00
35291;BME280;21411;50.024;19.220;2022-08-23T14:18:31;98797.98;;;26.10;100.00
35291;BME280;21411;50.024;19.220;2022-08-23T14:20:58;98801.12;;;26.13;100.00
35291;BME280;21411;50.024;19.220;2022-08-23T14:23:25;98795.30;;;26.17;100.00
35291;BME280;21411;50.024;19.220;2022-08-23T14:25:53;98798.70;;;26.15;100.00
35291;BME280;21411;50.024;19.220;2022-08-23T14:28:23;98796.88;;;26.04;100.00
35291;BME280;21411;50.024;19.220;2022-08-23T14:30:51;98797.46;;;26.05;100.00
35291;BME280;21411;50.024;19.220;2022-08-23T14:33:17;98793.89;;;26.09;100.00
35291;BME280;21411;50.024;19.220;2022-08-23T14:35:48;98797.86;;;26.02;100.00
35291;BME280;21411;50.024;19.220;2022-08-23T14:38:15;98795.39;;;26.03;100.00
35291;BME280;21411;50.024;19.220;2022-08-23T14:40:50;98792.59;;;25.90;100.00
35291;BME280;21411;50.024;19.220;2022-08-23T14:43:19;98789.81;;;25.91;100.00
35291;BME280;21411;50.024;19.220;2022-08-23T14:45:47;98790.05;;;25.94;100.00
35291;BME280;21411;50.024;19.220;2022-08-23T14:48:15;98792.40;;;25.98;100.00
35291;BME280;21411;50.024;19.220;2022-08-23T14:50:43;98792.17;;;26.07;100.00
35291;BME280;21411;50.024;19.220;2022-08-23T14:53:12;98794.11;;;26.14;100.00
35291;BME280;21411;50.024;19.220;2022-08-23T14:55:40;98799.66;;;26.23;100.00
35291;BME280;21411;50.024;19.220;2022-08-23T14:58:07;98800.00;;;26.24;100.00
35291;BME280;21411;50.024;19.220;2022-08-23T15:00:34;98803.70;;;26.24;100.00
35291;BME280;21411;50.024;19.220;2022-08-23T15:03:03;98809.30;;;26.20;100.00
35291;BME280;21411;50.024;19.220;2022-08-23T15:05:32;98804.69;;;26.09;100.00
35291;BME280;21411;50.024;19.220;2022-08-23T15:07:59;98803.69;;;26.13;100.00
35291;BME280;21411;50.024;19.220;2022-08-23T15:10:26;98806.27;;;26.26;100.00